createdAt,value
2018-11-04T00:02:06.730Z,81.00
2018-11-04T00:04:35.631Z,80.82
2018-11-04T00:07:05.185Z,81.02
2018-11-04T00:09:34.537Z,80.84
2018-11-04T00:12:03.866Z,81.03
2018-11-04T00:14:34.529Z,81.40
2018-11-04T00:17:03.509Z,80.94
2018-11-04T00:19:32.435Z,81.08
2018-11-04T00:22:01.714Z,81.25
2018-11-04T00:24:30.651Z,81.25
2018-11-04T00:27:01.093Z,81.47
2018-11-04T00:29:30.084Z,81.45
2018-11-04T00:31:58.746Z,81.45
2018-11-04T00:34:28.638Z,81.35
2018-11-04T00:36:58.633Z,81.40
2018-11-04T00:39:28.323Z,81.25
2018-11-04T00:41:57.803Z,81.31
2018-11-04T00:44:27.301Z,81.19
2018-11-04T00:46:56.558Z,81.36
2018-11-04T00:49:26.204Z,81.76
2018-11-04T00:51:55.732Z,81.60
2018-11-04T00:54:25.082Z,82.04
2018-11-04T00:56:53.694Z,82.40
2018-11-04T00:59:22.944Z,81.99
2018-11-04T01:01:51.879Z,82.13
2018-11-04T01:04:22.955Z,82.27
2018-11-04T01:06:51.843Z,82.32
2018-11-04T01:09:22.529Z,82.10
2018-11-04T01:11:51.124Z,82.09
2018-11-04T01:14:20.349Z,82.10
2018-11-04T01:16:49.416Z,82.10
2018-11-04T01:19:18.814Z,82.44
2018-11-04T01:21:48.884Z,82.76
2018-11-04T01:24:18.202Z,82.69
2018-11-04T01:26:47.334Z,83.38
2018-11-04T01:29:16.350Z,83.71
2018-11-04T01:31:45.197Z,84.18
2018-11-04T01:34:15.123Z,83.94
2018-11-04T01:36:44.346Z,84.26
2018-11-04T01:39:13.132Z,84.29
2018-11-04T01:41:42.237Z,83.97
2018-11-04T01:44:12.181Z,84.12
2018-11-04T01:46:41.951Z,84.73
2018-11-04T01:49:11.046Z,84.70
2018-11-04T01:51:40.512Z,84.37
2018-11-04T01:54:10.349Z,84.28
2018-11-04T01:56:39.787Z,83.97
2018-11-04T01:59:08.791Z,83.49
2018-11-04T02:01:38.176Z,83.65
2018-11-04T02:04:07.160Z,83.40
2018-11-04T02:06:38.085Z,83.16
2018-11-04T02:09:09.644Z,83.91
2018-11-04T02:11:39.408Z,83.87
2018-11-04T02:14:08.393Z,83.55
2018-11-04T02:16:38.635Z,84.06
2018-11-04T02:19:08.016Z,83.78
2018-11-04T02:21:37.368Z,83.72
2018-11-04T02:24:06.408Z,83.92
2018-11-04T02:26:35.224Z,84.02
2018-11-04T02:29:04.580Z,84.20
2018-11-04T02:31:33.627Z,84.17
2018-11-04T02:34:02.843Z,84.18
2018-11-04T02:36:32.265Z,84.01
2018-11-04T02:39:01.096Z,84.16
2018-11-04T02:41:30.124Z,84.29
2018-11-04T02:43:58.998Z,83.98
2018-11-04T02:46:28.132Z,83.92
2018-11-04T02:48:57.034Z,84.05
2018-11-04T02:51:27.166Z,83.99
2018-11-04T02:53:56.123Z,84.01
2018-11-04T02:56:26.442Z,83.99
2018-11-04T02:58:55.852Z,84.12
2018-11-04T03:01:25.678Z,84.01
2018-11-04T03:03:55.178Z,84.05
2018-11-04T03:06:25.310Z,83.99
2018-11-04T03:08:54.657Z,83.98
2018-11-04T03:11:23.790Z,84.03
2018-11-04T03:13:54.261Z,84.16
2018-11-04T03:16:23.622Z,84.53
2018-11-04T03:18:53.272Z,84.47
2018-11-04T03:21:22.433Z,84.27
2018-11-04T03:23:51.343Z,84.35
2018-11-04T03:26:20.446Z,83.88
2018-11-04T03:28:50.107Z,84.01
2018-11-04T03:31:18.720Z,84.19
2018-11-04T03:33:47.900Z,83.95
2018-11-04T03:36:17.543Z,84.03
2018-11-04T03:38:46.649Z,84.04
2018-11-04T03:41:16.430Z,84.23
2018-11-04T03:43:45.663Z,84.29
2018-11-04T03:46:14.937Z,84.23
2018-11-04T03:48:44.545Z,84.21
2018-11-04T03:51:14.322Z,84.25
2018-11-04T03:53:42.904Z,84.33
2018-11-04T03:56:11.612Z,84.54
2018-11-04T03:58:41.176Z,84.65
2018-11-04T04:01:10.132Z,84.56
2018-11-04T04:03:39.483Z,84.75
2018-11-04T04:06:08.629Z,84.48
2018-11-04T04:08:37.945Z,84.70
2018-11-04T04:11:07.229Z,84.78
2018-11-04T04:13:36.798Z,84.79
2018-11-04T04:16:05.817Z,85.12
2018-11-04T04:18:34.763Z,84.90
2018-11-04T04:21:09.017Z,84.69
2018-11-04T04:23:39.501Z,85.11
2018-11-04T04:26:09.443Z,84.71
2018-11-04T04:28:38.440Z,85.35
2018-11-04T04:31:07.320Z,85.39
2018-11-04T04:33:35.983Z,85.15
2018-11-04T04:36:04.810Z,85.32
2018-11-04T04:38:34.181Z,85.33
2018-11-04T04:41:03.066Z,85.42
2018-11-04T04:43:32.035Z,85.24
2018-11-04T04:46:01.181Z,84.85
2018-11-04T04:48:31.423Z,84.83
2018-11-04T04:51:01.309Z,85.21
2018-11-04T04:53:30.449Z,85.41
2018-11-04T04:55:59.248Z,85.55
2018-11-04T04:58:27.832Z,85.24
2018-11-04T05:00:57.144Z,85.18
2018-11-04T05:03:27.233Z,85.26
2018-11-04T05:05:56.355Z,85.19
2018-11-04T05:08:25.392Z,85.07
2018-11-04T05:10:54.665Z,85.05
2018-11-04T05:13:23.494Z,85.20
2018-11-04T05:15:52.426Z,85.18
2018-11-04T05:18:21.611Z,85.49
2018-11-04T05:20:51.474Z,85.41
2018-11-04T05:23:20.461Z,85.38
2018-11-04T05:25:50.134Z,85.63
2018-11-04T05:28:19.924Z,85.13
2018-11-04T05:30:48.749Z,85.33
2018-11-04T05:33:18.856Z,85.02
2018-11-04T05:35:48.751Z,84.96
2018-11-04T05:38:18.115Z,85.19
2018-11-04T05:40:48.128Z,84.92
2018-11-04T05:43:17.741Z,85.18
2018-11-04T05:45:46.525Z,84.73
2018-11-04T05:48:15.834Z,84.87
2018-11-04T05:50:45.321Z,84.74
2018-11-04T05:53:14.920Z,84.88
2018-11-04T05:55:44.331Z,85.03
2018-11-04T05:58:14.493Z,84.53
2018-11-04T06:00:43.455Z,84.82
2018-11-04T06:03:12.652Z,84.80
2018-11-04T06:05:41.909Z,84.57
2018-11-04T06:08:10.915Z,84.49
2018-11-04T06:10:40.560Z,84.69
2018-11-04T06:13:09.452Z,84.71
2018-11-04T06:15:38.881Z,84.63
2018-11-04T06:18:08.358Z,85.01
2018-11-04T06:20:37.125Z,85.19
2018-11-04T06:23:06.410Z,85.27
2018-11-04T06:25:36.377Z,85.16
2018-11-04T06:28:05.683Z,85.35
2018-11-04T06:30:34.483Z,85.13
2018-11-04T06:33:03.062Z,85.32
2018-11-04T06:35:31.601Z,85.45
2018-11-04T06:38:00.391Z,84.92
2018-11-04T06:40:29.815Z,85.16
2018-11-04T06:42:59.926Z,85.19
2018-11-04T06:45:29.073Z,85.44
2018-11-04T06:47:58.585Z,85.40
2018-11-04T06:50:28.101Z,85.09
2018-11-04T06:52:57.548Z,85.18
2018-11-04T06:55:27.973Z,85.33
2018-11-04T06:57:57.110Z,85.54
2018-11-04T07:00:25.668Z,85.57
2018-11-04T07:02:55.006Z,85.60
2018-11-04T07:05:24.561Z,85.68
2018-11-04T07:07:54.449Z,85.50
2018-11-04T07:10:23.762Z,85.53
2018-11-04T07:12:53.038Z,85.56
2018-11-04T07:15:23.352Z,85.76
2018-11-04T07:17:52.156Z,85.69
2018-11-04T07:20:21.589Z,85.56
2018-11-04T07:22:50.988Z,85.38
2018-11-04T07:25:20.173Z,85.32
2018-11-04T07:27:49.632Z,85.22
2018-11-04T07:30:18.837Z,85.37
2018-11-04T07:32:47.984Z,84.98
2018-11-04T07:35:16.563Z,85.08
2018-11-04T07:37:45.771Z,85.03
2018-11-04T07:40:14.918Z,86.01
2018-11-04T07:42:44.191Z,85.78
2018-11-04T07:45:12.786Z,86.12
2018-11-04T07:47:41.924Z,86.15
2018-11-04T07:50:13.889Z,86.15
2018-11-04T07:52:43.618Z,86.07
2018-11-04T07:55:12.225Z,86.22
2018-11-04T07:57:43.384Z,86.12
2018-11-04T08:00:14.777Z,86.24
2018-11-04T08:02:44.452Z,86.02
2018-11-04T08:05:14.571Z,86.11
2018-11-04T08:07:44.303Z,85.92
2018-11-04T08:10:14.432Z,86.17
2018-11-04T08:12:43.951Z,86.31
2018-11-04T08:15:13.656Z,85.97
2018-11-04T08:17:42.833Z,85.89
2018-11-04T08:20:12.102Z,85.76
2018-11-04T08:22:41.116Z,85.87
2018-11-04T08:25:10.361Z,85.82
2018-11-04T08:27:39.367Z,85.89
2018-11-04T08:30:10.105Z,85.85
2018-11-04T08:32:39.615Z,86.20
2018-11-04T08:35:08.589Z,86.12
2018-11-04T08:37:38.232Z,86.27
2018-11-04T08:40:07.653Z,85.95
2018-11-04T08:42:36.868Z,86.05
2018-11-04T08:45:06.726Z,86.07
2018-11-04T08:47:35.922Z,86.17
2018-11-04T08:50:06.420Z,86.32
2018-11-04T08:52:35.726Z,86.23
2018-11-04T08:55:05.206Z,85.82
2018-11-04T08:57:34.147Z,85.96
2018-11-04T09:00:03.552Z,85.71
2018-11-04T09:02:32.705Z,85.89
2018-11-04T09:05:01.976Z,85.54
2018-11-04T09:07:31.882Z,85.25
2018-11-04T09:10:01.208Z,85.14
2018-11-04T09:12:30.464Z,85.37
2018-11-04T09:15:00.084Z,85.67
2018-11-04T09:17:29.571Z,85.79
2018-11-04T09:19:58.456Z,85.79
2018-11-04T09:22:27.471Z,85.98
2018-11-04T09:24:56.073Z,86.03
2018-11-04T09:27:25.270Z,86.08
2018-11-04T09:29:53.873Z,85.47
2018-11-04T09:32:23.415Z,85.37
2018-11-04T09:34:52.942Z,85.33
2018-11-04T09:37:22.262Z,85.10
2018-11-04T09:39:51.107Z,85.18
2018-11-04T09:42:21.098Z,84.99
2018-11-04T09:44:50.017Z,84.98
2018-11-04T09:47:18.860Z,84.95
2018-11-04T09:49:48.115Z,85.12
2018-11-04T09:52:17.547Z,85.02
2018-11-04T09:54:46.438Z,84.83
2018-11-04T09:57:15.825Z,84.85
2018-11-04T09:59:45.781Z,84.99
2018-11-04T10:02:15.047Z,84.54
2018-11-04T10:04:44.307Z,84.47
2018-11-04T10:07:13.301Z,84.77
2018-11-04T10:09:42.831Z,84.67
2018-11-04T10:12:12.475Z,85.08
2018-11-04T10:14:43.300Z,84.61
2018-11-04T10:17:17.507Z,84.55
2018-11-04T10:20:01.751Z,84.41
2018-11-04T10:22:37.166Z,84.53
2018-11-04T10:25:10.496Z,84.23
2018-11-04T10:27:44.822Z,84.40
2018-11-04T10:30:21.278Z,84.49
2018-11-04T10:32:51.966Z,84.08
2018-11-04T10:35:35.688Z,84.64
2018-11-04T10:38:10.001Z,84.76
2018-11-04T10:40:49.992Z,84.97
2018-11-04T10:43:18.869Z,84.73
2018-11-04T10:45:54.479Z,84.88
2018-11-04T10:48:34.024Z,85.32
2018-11-04T10:51:05.965Z,85.53
2018-11-04T10:54:00.523Z,85.23
2018-11-04T10:56:29.511Z,85.44
2018-11-04T10:58:58.630Z,85.58
2018-11-04T11:01:27.784Z,85.86
2018-11-04T11:03:57.637Z,85.58
2018-11-04T11:06:27.143Z,86.03
2018-11-04T11:08:55.957Z,85.42
2018-11-04T11:11:25.497Z,85.33
2018-11-04T11:13:55.342Z,84.83
2018-11-04T11:16:24.373Z,84.52
2018-11-04T11:18:53.141Z,83.55
2018-11-04T11:21:22.478Z,83.65
2018-11-04T11:23:51.891Z,83.51
2018-11-04T11:26:21.185Z,83.28
2018-11-04T11:28:51.907Z,83.34
2018-11-04T11:31:27.270Z,83.54
2018-11-04T11:39:36.950Z,83.39
2018-11-04T11:42:10.598Z,82.75
2018-11-04T11:44:49.845Z,82.45
2018-11-04T11:47:34.526Z,82.33
2018-11-04T11:50:13.715Z,82.48
2018-11-04T11:53:12.225Z,81.63
2018-11-04T11:55:52.355Z,81.64
2018-11-04T11:58:26.413Z,81.75
2018-11-04T12:01:02.546Z,81.48
2018-11-04T12:03:39.520Z,81.57
2018-11-04T12:06:10.404Z,81.16
2018-11-04T12:11:26.897Z,81.34
2018-11-04T12:14:01.345Z,80.92
2018-11-04T12:16:30.472Z,80.78
2018-11-04T12:18:59.942Z,80.60
2018-11-04T12:21:29.075Z,79.98
2018-11-04T12:23:59.616Z,79.86
2018-11-04T12:26:28.959Z,79.71
2018-11-04T12:28:58.457Z,78.97
2018-11-04T12:31:27.273Z,78.95
2018-11-04T12:33:55.947Z,80.15
2018-11-04T12:36:24.892Z,79.75
2018-11-04T12:38:54.080Z,79.97
2018-11-04T12:41:23.640Z,80.76
2018-11-04T12:43:52.817Z,80.66
2018-11-04T12:46:22.329Z,80.38
2018-11-04T12:48:52.384Z,80.05
2018-11-04T12:51:21.638Z,79.88
2018-11-04T12:53:51.380Z,79.54
2018-11-04T12:56:20.779Z,79.55
2018-11-04T12:58:50.031Z,80.12
2018-11-04T13:01:18.955Z,80.23
2018-11-04T13:03:48.806Z,80.26
2018-11-04T13:06:18.387Z,80.17
2018-11-04T13:08:47.852Z,80.43
2018-11-04T13:11:16.719Z,80.41
2018-11-04T13:13:46.398Z,79.53
2018-11-04T13:16:15.319Z,79.80
2018-11-04T13:18:44.613Z,79.77
2018-11-04T13:21:13.746Z,79.52
2018-11-04T13:23:42.764Z,79.77
2018-11-04T13:26:12.005Z,79.43
2018-11-04T13:28:41.532Z,79.98
2018-11-04T13:31:10.643Z,79.16
2018-11-04T13:33:39.656Z,79.34
2018-11-04T13:36:09.165Z,79.44
2018-11-04T13:38:37.812Z,80.12
2018-11-04T13:41:06.846Z,80.03
2018-11-04T13:43:36.355Z,80.58
2018-11-04T13:46:06.222Z,80.33
2018-11-04T13:48:35.488Z,80.96
2018-11-04T13:51:04.748Z,80.76
2018-11-04T13:53:34.561Z,79.79
2018-11-04T13:56:04.028Z,79.58
2018-11-04T13:58:33.265Z,79.83
2018-11-04T14:01:02.855Z,79.47
2018-11-04T14:03:31.702Z,79.95
2018-11-04T14:06:01.285Z,80.68
2018-11-04T14:08:30.506Z,80.12
2018-11-04T14:11:00.286Z,80.09
2018-11-04T14:13:29.080Z,80.24
2018-11-04T14:15:58.626Z,80.41
2018-11-04T14:18:28.010Z,80.82
2018-11-04T14:20:56.856Z,80.11
2018-11-04T14:23:25.751Z,80.53
2018-11-04T14:25:54.870Z,80.99
2018-11-04T14:28:29.393Z,80.55
2018-11-04T14:31:07.520Z,80.88
2018-11-04T14:34:02.092Z,80.15
2018-11-04T14:37:06.563Z,80.40
2018-11-04T14:39:41.045Z,80.00
2018-11-04T14:42:22.441Z,80.18
2018-11-04T14:44:56.062Z,79.93
2018-11-04T14:47:45.218Z,80.21
2018-11-04T14:50:22.866Z,79.96
2018-11-04T14:52:57.055Z,79.83
2018-11-04T14:55:28.696Z,79.78
2018-11-04T14:58:08.235Z,80.29
2018-11-04T15:00:41.789Z,80.31
2018-11-04T15:03:16.848Z,80.55
2018-11-04T15:06:02.086Z,79.80
2018-11-04T15:08:37.105Z,80.02
2018-11-04T15:11:15.239Z,80.08
2018-11-04T15:13:50.596Z,80.42
2018-11-04T15:16:24.945Z,80.32
2018-11-04T15:19:08.644Z,80.09
2018-11-04T15:21:49.447Z,80.13
2018-11-04T15:24:20.915Z,80.79
2018-11-04T15:26:52.532Z,80.52
2018-11-04T15:29:24.335Z,80.72
2018-11-04T15:31:53.821Z,81.50
2018-11-04T15:34:30.641Z,81.21
2018-11-04T15:39:57.093Z,81.42
2018-11-04T15:42:27.104Z,81.28
2018-11-04T15:45:05.755Z,81.41
2018-11-04T15:47:39.527Z,81.55
2018-11-04T15:50:11.440Z,81.22
2018-11-04T15:52:42.827Z,81.46
2018-11-04T15:55:29.143Z,81.21
2018-11-04T15:57:58.617Z,81.16
2018-11-04T16:00:28.087Z,81.34
2018-11-04T16:03:05.429Z,81.76
2018-11-04T16:05:45.341Z,81.54
2018-11-04T16:08:33.689Z,81.56
2018-11-04T16:11:11.728Z,81.62
2018-11-04T16:13:45.644Z,81.71
2018-11-04T16:16:14.960Z,81.69
2018-11-04T16:19:07.863Z,82.04
2018-11-04T16:21:42.269Z,82.34
2018-11-04T16:24:24.509Z,82.33
2018-11-04T16:26:58.418Z,82.86
2018-11-04T16:29:34.133Z,82.77
2018-11-04T16:32:02.961Z,82.44
2018-11-04T16:34:32.400Z,82.73
2018-11-04T16:37:01.257Z,82.37
2018-11-04T16:39:30.442Z,82.52
2018-11-04T16:41:59.243Z,82.62
2018-11-04T16:44:28.469Z,82.85
2018-11-04T16:46:57.101Z,82.12
2018-11-04T16:49:26.480Z,81.72
2018-11-04T16:51:56.477Z,81.58
2018-11-04T16:54:26.105Z,81.78
2018-11-04T16:56:55.637Z,82.04
2018-11-04T16:59:25.832Z,81.75
2018-11-04T17:01:55.533Z,82.30
2018-11-04T17:04:24.602Z,81.43
2018-11-04T17:06:53.809Z,81.92
2018-11-04T17:09:22.970Z,82.79
2018-11-04T17:11:52.196Z,82.15
2018-11-04T17:14:20.769Z,82.50
2018-11-04T17:16:49.611Z,82.04
2018-11-04T17:19:18.544Z,82.08
2018-11-04T17:21:51.279Z,82.02
2018-11-04T17:24:28.247Z,81.73
2018-11-04T17:27:05.115Z,81.52
2018-11-04T17:29:34.121Z,82.22
2018-11-04T17:32:02.810Z,81.93
2018-11-04T17:34:31.622Z,82.37
2018-11-04T17:37:00.844Z,82.48
2018-11-04T17:39:32.657Z,82.74
2018-11-04T17:42:07.446Z,83.14
2018-11-04T17:44:36.363Z,83.70
2018-11-04T17:47:09.271Z,83.91
2018-11-04T17:49:40.377Z,83.61
2018-11-04T17:52:11.042Z,84.29
2018-11-04T17:54:39.883Z,84.78
2018-11-04T17:57:09.346Z,85.21
2018-11-04T17:59:39.312Z,84.83
2018-11-04T18:02:07.688Z,84.58
2018-11-04T18:04:37.156Z,84.93
2018-11-04T18:07:05.862Z,85.01
2018-11-04T18:09:35.044Z,84.51
2018-11-04T18:12:04.390Z,84.65
2018-11-04T18:14:34.058Z,84.74
2018-11-04T18:17:02.976Z,84.57
2018-11-04T18:19:32.338Z,84.65
2018-11-04T18:22:01.459Z,84.83
2018-11-04T18:24:30.767Z,84.73
2018-11-04T18:27:00.289Z,84.71
2018-11-04T18:29:29.362Z,84.38
2018-11-04T18:31:59.069Z,83.97
2018-11-04T18:34:28.708Z,83.65
2018-11-04T18:36:57.777Z,83.71
2018-11-04T18:39:27.449Z,83.97
2018-11-04T18:41:57.919Z,83.92
2018-11-04T18:44:28.252Z,84.16
2018-11-04T18:46:57.618Z,84.17
2018-11-04T18:49:26.752Z,84.88
2018-11-04T18:51:55.330Z,84.47
2018-11-04T18:54:25.234Z,85.04
2018-11-04T18:56:54.876Z,85.06
2018-11-04T18:59:24.304Z,85.32
2018-11-04T19:01:53.557Z,85.11
2018-11-04T19:04:23.346Z,85.14
2018-11-04T19:06:53.015Z,85.02
2018-11-04T19:09:22.088Z,84.89
2018-11-04T19:11:51.731Z,85.44
2018-11-04T19:14:21.168Z,85.60
2018-11-04T19:16:50.092Z,85.16
2018-11-04T19:19:22.748Z,85.72
2018-11-04T19:21:52.141Z,85.77
2018-11-04T19:24:54.628Z,86.15
2018-11-04T19:27:56.553Z,85.69
2018-11-04T19:30:42.758Z,85.83
2018-11-04T19:33:34.129Z,86.00
2018-11-04T19:36:03.485Z,85.84
2018-11-04T19:38:33.916Z,85.39
2018-11-04T19:41:02.998Z,85.30
2018-11-04T19:43:31.885Z,84.77
2018-11-04T19:46:28.791Z,85.25
2018-11-04T19:49:00.070Z,85.46
2018-11-04T19:51:40.280Z,84.91
2018-11-04T19:54:10.009Z,85.61
2018-11-04T19:56:39.842Z,85.43
2018-11-04T19:59:10.394Z,85.32
2018-11-04T20:01:39.389Z,85.51
2018-11-04T20:04:08.624Z,85.79
2018-11-04T20:06:38.193Z,85.72
2018-11-04T20:09:10.538Z,85.90
2018-11-04T20:11:39.104Z,85.49
2018-11-04T20:14:12.944Z,86.52
2018-11-04T20:16:42.054Z,86.45
2018-11-04T20:19:16.286Z,86.15
2018-11-04T20:21:44.895Z,86.03
2018-11-04T20:24:19.633Z,86.21
2018-11-04T20:26:48.690Z,86.19
2018-11-04T20:29:18.776Z,86.42
2018-11-04T20:31:52.804Z,86.21
2018-11-04T20:34:21.466Z,85.66
2018-11-04T20:36:50.557Z,85.47
2018-11-04T20:39:24.917Z,86.09
2018-11-04T20:41:53.977Z,86.28
2018-11-04T20:44:22.930Z,86.12
2018-11-04T20:46:51.889Z,86.58
2018-11-04T20:49:25.960Z,86.92
2018-11-04T20:51:54.629Z,86.61
2018-11-04T20:54:24.225Z,86.91
2018-11-04T20:56:58.075Z,86.71
2018-11-04T20:59:27.028Z,86.65
2018-11-04T21:01:56.011Z,86.67
2018-11-04T21:04:25.591Z,86.64
2018-11-04T21:06:54.436Z,86.75
2018-11-04T21:09:23.357Z,86.72
2018-11-04T21:11:52.925Z,86.52
2018-11-04T21:14:37.985Z,86.59
2018-11-04T21:17:26.445Z,86.41
2018-11-04T21:20:28.376Z,86.56
2018-11-04T21:25:57.909Z,86.53
2018-11-04T21:28:32.453Z,86.58
2018-11-04T21:31:01.222Z,86.62
2018-11-04T21:33:29.804Z,86.75
2018-11-04T21:35:58.937Z,86.44
2018-11-04T21:38:28.212Z,87.20
2018-11-04T21:40:57.498Z,87.15
2018-11-04T21:43:35.166Z,87.06
2018-11-04T21:46:03.988Z,87.18
2018-11-04T21:48:33.681Z,86.93
2018-11-04T21:51:06.322Z,86.96
2018-11-04T21:53:35.338Z,86.85
2018-11-04T21:56:18.298Z,87.01
2018-11-04T21:58:48.074Z,87.16
2018-11-04T22:04:20.122Z,87.12
2018-11-04T22:07:03.898Z,86.79
2018-11-04T22:09:36.892Z,87.01
2018-11-04T22:14:53.768Z,87.22
2018-11-04T22:17:22.507Z,87.00
2018-11-04T22:19:52.931Z,86.91
2018-11-04T22:22:32.684Z,86.94
2018-11-04T22:25:01.634Z,86.68
2018-11-04T22:27:30.276Z,86.67
2018-11-04T22:29:58.883Z,87.05
2018-11-04T22:32:28.360Z,86.89
2018-11-04T22:34:57.360Z,87.10
2018-11-04T22:37:26.156Z,86.73
2018-11-04T22:39:55.464Z,86.72
2018-11-04T22:42:24.116Z,86.89
2018-11-04T22:44:52.856Z,86.61
2018-11-04T22:47:22.261Z,86.95
2018-11-04T22:49:50.823Z,86.68
2018-11-04T22:52:20.026Z,86.73
2018-11-04T22:54:49.328Z,86.26
2018-11-04T22:57:17.889Z,86.46
2018-11-04T22:59:47.105Z,86.41
2018-11-04T23:02:16.132Z,86.78
2018-11-04T23:04:51.171Z,86.36
2018-11-04T23:07:25.001Z,86.55
2018-11-04T23:09:54.312Z,86.60
2018-11-04T23:12:33.199Z,86.60
2018-11-04T23:15:02.804Z,86.64
2018-11-04T23:17:36.434Z,86.42
2018-11-04T23:20:08.775Z,86.46
2018-11-04T23:22:41.652Z,86.79
2018-11-04T23:25:13.626Z,86.62
2018-11-04T23:27:43.609Z,86.84
2018-11-04T23:30:23.701Z,86.70
2018-11-04T23:32:56.421Z,86.71
2018-11-04T23:35:25.460Z,86.69
2018-11-04T23:37:55.211Z,86.95
2018-11-04T23:40:23.995Z,86.79
2018-11-04T23:42:58.695Z,86.69
2018-11-04T23:45:33.907Z,86.66
2018-11-04T23:48:03.071Z,86.56
2018-11-04T23:50:35.599Z,86.56
2018-11-04T23:53:06.129Z,86.79
2018-11-04T23:55:46.747Z,86.86
2018-11-04T23:58:16.728Z,86.94
